Aérodrome :
LOGIN :

S'inscrire | Disclaimer

   EN    FR    IT 

 










Légende :    VFR   VFR Marginal   IFR   IFR Intensif   IFR Très Intensif
Visi : 
Plafond : 
>= 8 km
>= 3000ft
5 à 8 km
1000 à 3000 ft
1500m à 5 km
500 à 1000 ft
800 à 1500m
200 à 500 ft
< 800m
< 200 ft
Symboles :   Orages  Brouillard  Fortes neiges  Fortes précipitations  Vent > 20 kt
SIGMETs :   Divers  Orages  Givrage  Turbulence  Onde Orograph.  Cendres Volcan.






- Altitude de l'aérodrome : 461 ft
- Code IATA : WIE


ETOU - Wiesbaden Army

DERNIER METAR :
  • 151656Z AUTO 00000KT 9999 CLR 04/02 A2963 RMK AO2 SLP040 T00420017 $

METARs EXPIRÉS :
  • 151556Z AUTO 18003KT 9999 OVC150 04/M02 A2961 RMK AO2 SLP034 T00431019 $
  • 151516Z AUTO 18003KT 9999 SCT022 BKN150 05/02 A2960 RMK AO2 SLP030 $
  • 151456Z AUTO 20005KT 9999 SCT022 05/02 A2959 RMK AO2 SLP027 T00500015 50012
  • 151446Z AUTO 18003KT 9999 BKN022 05/02 A2959 RMK AO2 SLP027 $

TAF AMD TAF ETOU
Valide du 15 à 17h jusqu'au 16 à 18h UTC


151728Z 1517/1618 VRB06KT 9999 SCT080 QNH2954INS
BECMG 1612/1613 20009KT 9999 BKN060 620604 QNH2979INS
BECMG 1614/1615 19009KT 8000 -RA BKN050 620505 QNH2980INS TX07/1614Z TN00/1604Z LAST NO AMDS AFT 1520 NEXT 1604



MET'MAP, la Météo Aéronautique d'un coup d'oeil ! - Copyright ORBIFLY Décembre 2007 - Disclaimer

ORBIFLY MET'MAP TEAM :

Programmation & Développement : Alexandra Zaïnal
Conception & Développement : Baudouin d'Aumeries
Co-Programmation & Développement : Marc-Olivier Méhu
Soutien technique & logistique : Manuel Goepfert

Contact : metmap@orbifly.com




SOURCES & CREDITS :

   NOAA